Time;durP1;ratioP1;P1;durP2;ratioP2;P2;SDS_P1;SDS_P2;PMS_P1;PMS_P2;Temp;Humidity;BMP_temperature;BMP_pressure;BME280_temperature;BME280_humidity;BME280_pressure;Samples;Min_cycle;Max_cycle;Signal;HPM_P1;HPM_P2
2021/05/25 00:00:22;;;;;;;10.18;1.77;;;14.80;99.90;;;;;;5031186;28;20132;-68
2021/05/25 00:03:26;;;;;;;5.28;1.92;;;14.60;99.90;;;;;;5031259;28;20388;-69
2021/05/25 00:06:30;;;;;;;4.15;1.58;;;14.50;99.90;;;;;;5031499;28;20040;-69
2021/05/25 00:09:35;;;;;;;2.65;1.50;;;14.60;99.90;;;;;;5030648;28;20048;-69
2021/05/25 00:12:55;;;;;;;7.20;1.92;;;14.50;99.90;;;;;;5030605;28;20523;-68
2021/05/25 00:15:59;;;;;;;3.83;1.73;;;14.40;99.90;;;;;;5031375;28;20064;-69
2021/05/25 00:19:04;;;;;;;8.82;1.98;;;14.40;99.90;;;;;;5030559;28;20610;-68
2021/05/25 00:22:08;;;;;;;2.75;2.05;;;14.50;99.90;;;;;;5030513;28;20044;-69
2021/05/25 00:25:15;;;;;;;8.38;2.00;;;14.50;99.90;;;;;;5029619;28;20044;-69
2021/05/25 00:28:23;;;;;;;3.17;1.65;;;14.50;99.90;;;;;;5031095;28;20404;-69
2021/05/25 00:31:27;;;;;;;3.25;1.92;;;14.40;99.90;;;;;;5030721;28;20408;-69
2021/05/25 00:34:45;;;;;;;7.13;2.00;;;14.40;99.90;;;;;;5030559;28;20056;-69
2021/05/25 00:37:49;;;;;;;3.25;1.73;;;14.40;99.90;;;;;;5030976;28;20052;-69
2021/05/25 00:40:54;;;;;;;7.15;2.28;;;14.30;99.90;;;;;;5028900;28;20040;-69
2021/05/25 00:43:59;;;;;;;5.47;2.00;;;14.10;99.90;;;;;;5030057;28;20057;-69
2021/05/25 00:47:03;;;;;;;7.95;2.03;;;14.20;99.90;;;;;;5030881;28;20048;-69
2021/05/25 00:50:11;;;;;;;3.13;2.22;;;14.20;99.90;;;;;;5023496;28;20044;-69
2021/05/25 00:53:15;;;;;;;8.32;2.10;;;14.20;99.90;;;;;;5020730;28;20044;-70
2021/05/25 00:56:20;;;;;;;10.95;2.22;;;14.30;99.90;;;;;;5028247;28;20048;-67
2021/05/25 00:59:25;;;;;;;10.45;2.20;;;14.30;99.90;;;;;;5030459;28;20044;-68
2021/05/25 01:02:29;;;;;;;6.38;2.50;;;14.30;99.90;;;;;;5030277;28;20060;-69
2021/05/25 01:05:36;;;;;;;4.85;1.90;;;14.30;99.90;;;;;;5030045;28;20113;-68
2021/05/25 01:08:41;;;;;;;7.40;1.98;;;14.20;99.90;;;;;;5029805;28;20396;-69
2021/05/25 01:11:46;;;;;;;7.50;2.20;;;14.30;99.90;;;;;;5029688;28;20044;-69
2021/05/25 01:14:55;;;;;;;5.95;2.00;;;14.30;99.90;;;;;;5029985;28;20048;-68
2021/05/25 01:18:00;;;;;;;6.80;1.80;;;14.30;99.90;;;;;;5030123;28;20400;-68
2021/05/25 01:21:08;;;;;;;3.15;1.77;;;14.40;99.90;;;;;;5027686;28;20044;-69
2021/05/25 01:24:12;;;;;;;5.32;1.85;;;14.40;99.90;;;;;;5008188;28;20041;-69
2021/05/25 01:27:16;;;;;;;4.80;1.90;;;14.40;99.90;;;;;;5008673;28;20049;-69
2021/05/25 01:30:29;;;;;;;3.40;1.92;;;14.40;99.90;;;;;;5010483;28;20053;-69
2021/05/25 01:33:37;;;;;;;4.97;1.83;;;14.40;99.90;;;;;;5010257;28;20041;-69
2021/05/25 01:36:45;;;;;;;4.72;1.98;;;14.50;99.90;;;;;;5010553;28;20065;-68
2021/05/25 01:39:53;;;;;;;5.80;1.95;;;14.50;99.90;;;;;;5009564;28;20053;-68
2021/05/25 01:42:58;;;;;;;4.03;1.90;;;14.50;99.90;;;;;;5010214;28;20061;-69
2021/05/25 01:46:03;;;;;;;4.43;1.75;;;14.50;99.90;;;;;;5011883;28;20044;-69
2021/05/25 01:49:07;;;;;;;5.05;1.77;;;14.60;99.90;;;;;;5022139;28;20392;-69
2021/05/25 01:52:12;;;;;;;11.45;2.20;;;14.60;99.90;;;;;;5015735;28;20049;-69
2021/05/25 01:55:51;;;;;;;6.47;2.05;;;14.50;99.90;;;;;;5033351;28;20061;-67
2021/05/25 01:58:55;;;;;;;7.47;2.10;;;14.40;99.90;;;;;;5034106;28;20056;-69
2021/05/25 02:01:59;;;;;;;5.18;1.83;;;14.50;99.90;;;;;;5033346;28;20040;-69
2021/05/25 02:05:04;;;;;;;4.35;1.80;;;14.50;99.90;;;;;;5033448;28;20043;-69
2021/05/25 02:08:09;;;;;;;4.05;1.73;;;14.50;99.90;;;;;;5033841;28;20056;-69
2021/05/25 02:11:13;;;;;;;5.03;2.47;;;14.50;99.90;;;;;;5033079;28;20064;-69
2021/05/25 02:14:17;;;;;;;8.48;2.58;;;14.50;99.90;;;;;;5033229;28;20044;-69
2021/05/25 02:17:25;;;;;;;3.97;1.63;;;14.60;99.90;;;;;;5033220;28;20041;-69
2021/05/25 02:20:30;;;;;;;6.03;2.00;;;14.60;99.90;;;;;;5013100;28;20426;-69
2021/05/25 02:23:34;;;;;;;7.15;1.90;;;14.40;99.90;;;;;;5013025;28;20049;-69
2021/05/25 02:26:38;;;;;;;4.15;2.00;;;14.40;99.90;;;;;;5012858;28;20052;-69
2021/05/25 02:29:43;;;;;;;5.20;2.42;;;14.50;99.90;;;;;;5013113;28;20123;-68
2021/05/25 02:32:47;;;;;;;6.15;2.10;;;14.50;99.90;;;;;;5013237;28;20060;-69
2021/05/25 02:35:53;;;;;;;10.57;2.22;;;14.50;99.90;;;;;;5013091;28;20327;-69
2021/05/25 02:38:58;;;;;;;9.23;2.40;;;14.50;99.90;;;;;;5000444;28;20049;-69
2021/05/25 02:42:01;;;;;;;11.57;2.10;;;14.60;99.90;;;;;;5012373;28;20045;-69
2021/05/25 02:45:07;;;;;;;4.13;1.85;;;14.60;99.90;;;;;;5013375;28;20048;-69
2021/05/25 02:48:11;;;;;;;3.58;2.50;;;14.60;99.90;;;;;;5012976;28;20049;-69
2021/05/25 02:51:16;;;;;;;10.65;2.40;;;14.60;99.90;;;;;;5012813;28;20180;-68
2021/05/25 02:54:21;;;;;;;10.57;3.42;;;14.60;99.90;;;;;;5011735;28;20057;-68
2021/05/25 02:57:25;;;;;;;6.90;2.00;;;14.70;99.90;;;;;;5013159;28;20048;-68
2021/05/25 03:00:35;;;;;;;5.28;2.40;;;14.70;99.90;;;;;;5011565;28;20503;-68
2021/05/25 03:03:40;;;;;;;5.35;2.42;;;14.70;99.90;;;;;;5031266;28;20048;-68
2021/05/25 03:06:45;;;;;;;4.50;2.10;;;14.70;99.90;;;;;;5032597;28;20036;-69
2021/05/25 03:09:49;;;;;;;7.85;1.40;;;14.70;99.90;;;;;;5031811;28;20479;-69
2021/05/25 03:12:54;;;;;;;13.00;2.42;;;14.70;99.90;;;;;;5032229;28;20044;-67
2021/05/25 03:15:58;;;;;;;5.70;1.83;;;14.80;99.90;;;;;;5032160;28;20037;-69
2021/05/25 03:19:03;;;;;;;6.55;1.83;;;14.80;99.90;;;;;;5032153;28;20040;-68
2021/05/25 03:22:08;;;;;;;8.95;2.47;;;14.70;99.90;;;;;;5031697;28;20048;-68
2021/05/25 03:25:14;;;;;;;6.63;1.80;;;14.70;99.90;;;;;;5030650;28;20495;-69
2021/05/25 03:28:18;;;;;;;7.82;1.65;;;14.70;99.90;;;;;;5020199;28;20040;-68
2021/05/25 03:31:22;;;;;;;11.52;2.67;;;14.60;99.90;;;;;;5031857;28;20048;-70
2021/05/25 03:34:26;;;;;;;8.48;1.75;;;14.60;99.90;;;;;;5019483;28;20519;-69
2021/05/25 03:37:30;;;;;;;10.07;1.85;;;14.60;99.90;;;;;;5032266;28;20049;-69
2021/05/25 03:40:35;;;;;;;6.05;2.13;;;14.50;99.90;;;;;;5030674;28;20044;-69
2021/05/25 03:43:39;;;;;;;9.82;1.90;;;14.60;99.90;;;;;;5031803;28;20064;-69
2021/05/25 03:46:44;;;;;;;8.55;2.40;;;14.50;99.90;;;;;;5031166;28;20044;-69
2021/05/25 03:49:48;;;;;;;9.77;1.98;;;14.50;99.90;;;;;;5031828;28;20048;-69
2021/05/25 03:52:56;;;;;;;10.35;2.90;;;14.50;99.90;;;;;;5032053;28;20048;-70
2021/05/25 03:59:13;;;;;;;9.18;2.28;;;14.50;99.90;;;;;;5032138;28;20060;-69
2021/05/25 04:02:17;;;;;;;10.50;1.70;;;14.50;99.90;;;;;;5031201;28;20060;-69
2021/05/25 04:05:22;;;;;;;6.57;1.42;;;14.50;99.90;;;;;;5031081;28;20041;-68
2021/05/25 04:08:26;;;;;;;8.15;2.05;;;14.50;99.90;;;;;;5031589;28;20044;-69
2021/05/25 04:11:30;;;;;;;4.85;1.38;;;14.50;99.90;;;;;;5030776;28;20045;-69
2021/05/25 04:14:35;;;;;;;11.18;1.85;;;14.60;99.90;;;;;;5031305;28;20052;-69
2021/05/25 04:17:41;;;;;;;10.35;2.00;;;14.60;99.90;;;;;;5031254;28;20052;-69
2021/05/25 04:20:45;;;;;;;5.32;1.50;;;14.50;99.90;;;;;;5030845;28;20052;-69
2021/05/25 04:23:49;;;;;;;7.88;1.70;;;14.60;99.90;;;;;;5030346;28;20064;-68
2021/05/25 04:26:54;;;;;;;8.43;1.60;;;14.60;99.90;;;;;;5030100;28;20503;-68
2021/05/25 04:30:00;;;;;;;10.93;2.05;;;14.60;99.90;;;;;;5029311;28;20390;-68
2021/05/25 04:33:06;;;;;;;6.45;1.80;;;14.60;99.90;;;;;;5030012;28;20049;-69
2021/05/25 04:36:11;;;;;;;8.52;1.60;;;14.70;99.90;;;;;;5030610;28;20048;-69
2021/05/25 04:39:15;;;;;;;8.48;1.67;;;14.80;99.90;;;;;;5030369;28;20040;-69
2021/05/25 04:42:19;;;;;;;6.55;1.92;;;14.80;99.90;;;;;;5029146;28;20045;-69
2021/05/25 04:45:23;;;;;;;4.97;1.50;;;14.90;99.90;;;;;;5030923;28;20050;-69
2021/05/25 04:48:28;;;;;;;9.18;2.42;;;15.10;99.90;;;;;;5030864;28;20076;-69
2021/05/25 04:51:32;;;;;;;7.78;1.52;;;15.10;99.90;;;;;;5030559;28;20064;-69
2021/05/25 04:54:36;;;;;;;8.40;1.40;;;15.10;99.90;;;;;;5030029;28;20060;-70
2021/05/25 04:57:41;;;;;;;7.53;1.42;;;15.20;99.90;;;;;;5030476;28;20511;-68
2021/05/25 05:00:45;;;;;;;6.97;2.00;;;15.20;99.90;;;;;;5030427;28;20053;-68
2021/05/25 05:03:50;;;;;;;10.98;1.67;;;15.40;99.90;;;;;;5010516;28;20068;-69
2021/05/25 05:06:54;;;;;;;10.85;1.92;;;15.20;99.90;;;;;;5010446;28;20048;-69
2021/05/25 05:09:58;;;;;;;5.40;1.70;;;15.60;99.90;;;;;;5009610;28;20069;-69
2021/05/25 05:13:08;;;;;;;7.50;1.73;;;15.50;99.90;;;;;;5027463;28;20041;-69
2021/05/25 05:16:12;;;;;;;12.38;1.70;;;15.70;99.90;;;;;;5030220;28;20036;-69
2021/05/25 05:19:17;;;;;;;6.35;1.33;;;15.60;99.90;;;;;;5028632;28;20045;-69
2021/05/25 05:22:24;;;;;;;9.15;1.65;;;15.50;99.90;;;;;;5018407;28;20239;-69
2021/05/25 05:25:28;;;;;;;5.85;1.27;;;15.60;99.90;;;;;;5009279;28;20049;-69
2021/05/25 05:28:32;;;;;;;6.00;1.75;;;15.90;99.90;;;;;;5017719;28;20527;-69
2021/05/25 05:31:37;;;;;;;5.35;1.90;;;16.00;99.90;;;;;;5017111;28;20048;-69
2021/05/25 05:34:42;;;;;;;5.22;1.45;;;16.00;99.90;;;;;;5027278;28;20040;-69
2021/05/25 05:37:46;;;;;;;7.38;1.50;;;16.10;99.90;;;;;;5029906;28;20049;-68
2021/05/25 05:40:51;;;;;;;5.22;1.50;;;16.30;99.90;;;;;;5027873;28;20045;-68
2021/05/25 05:43:57;;;;;;;6.47;1.48;;;16.70;99.90;;;;;;5029878;28;20041;-68
2021/05/25 05:47:02;;;;;;;13.07;2.05;;;16.90;99.90;;;;;;5030556;28;20044;-68
2021/05/25 05:50:10;;;;;;;4.85;1.42;;;17.10;99.90;;;;;;5029186;28;20041;-68
2021/05/25 05:53:14;;;;;;;7.93;1.83;;;17.10;99.90;;;;;;5027663;28;20053;-69
2021/05/25 05:56:19;;;;;;;11.48;1.73;;;17.20;99.90;;;;;;5029111;28;20049;-68
2021/05/25 05:59:23;;;;;;;15.73;2.28;;;18.50;99.90;;;;;;5030113;28;20588;-68
2021/05/25 06:02:28;;;;;;;11.98;2.25;;;21.10;99.90;;;;;;5010693;28;20053;-69
2021/05/25 06:05:35;;;;;;;8.48;1.35;;;22.80;99.90;;;;;;5020567;28;20060;-69
2021/05/25 06:08:40;;;;;;;7.40;2.10;;;21.90;99.90;;;;;;5027354;28;20207;-67
2021/05/25 06:11:51;;;;;;;5.47;1.48;;;23.30;99.90;;;;;;5021336;28;20395;-69
2021/05/25 06:14:56;;;;;;;5.07;1.38;;;24.10;99.90;;;;;;5026972;28;20032;-68
2021/05/25 06:18:00;;;;;;;11.00;1.77;;;24.70;99.30;;;;;;5020621;28;20049;-66
2021/05/25 06:21:06;;;;;;;6.70;1.70;;;22.30;99.90;;;;;;5020343;28;20043;-68
2021/05/25 06:24:12;;;;;;;8.02;1.80;;;21.80;99.90;;;;;;5028415;28;20126;-68
2021/05/25 06:27:17;;;;;;;9.75;1.90;;;23.70;99.90;;;;;;5021437;28;20054;-68
2021/05/25 06:30:21;;;;;;;8.85;1.60;;;25.40;99.90;;;;;;5026774;28;20484;-68
2021/05/25 06:33:25;;;;;;;7.57;1.52;;;23.60;97.70;;;;;;5027907;28;20044;-68
2021/05/25 06:36:30;;;;;;;6.75;1.70;;;22.80;99.40;;;;;;5028992;28;20399;-68
2021/05/25 06:39:34;;;;;;;5.28;1.65;;;23.90;98.10;;;;;;5017986;28;20441;-68
2021/05/25 06:42:38;;;;;;;9.40;2.00;;;24.30;98.20;;;;;;5020023;28;20036;-68
2021/05/25 06:45:42;;;;;;;10.70;1.50;;;25.30;97.60;;;;;;5031636;28;20511;-68
2021/05/25 06:48:46;;;;;;;6.82;1.67;;;25.00;98.50;;;;;;5028034;28;20080;-69
2021/05/25 06:51:52;;;;;;;6.03;2.03;;;25.50;97.80;;;;;;5027955;28;20044;-67
2021/05/25 06:54:58;;;;;;;9.35;1.60;;;24.50;97.80;;;;;;5021479;28;20041;-67
2021/05/25 06:58:03;;;;;;;13.48;1.90;;;23.00;98.00;;;;;;5021510;28;20049;-67
2021/05/25 07:01:06;;;;;;;7.30;2.05;;;21.60;99.90;;;;;;5030666;28;20048;-68
2021/05/25 07:04:11;;;;;;;5.28;1.42;;;21.50;99.90;;;;;;5028383;28;20040;-68
2021/05/25 07:07:16;;;;;;;8.05;1.73;;;21.70;99.90;;;;;;5024881;28;20052;-68
2021/05/25 07:10:21;;;;;;;9.02;1.73;;;23.40;99.90;;;;;;5017307;28;20033;-68
2021/05/25 07:13:26;;;;;;;5.45;2.03;;;24.10;98.50;;;;;;5024636;28;20052;-67
2021/05/25 07:16:30;;;;;;;7.80;2.22;;;23.70;98.30;;;;;;5026821;28;20044;-68
2021/05/25 07:19:34;;;;;;;8.02;2.00;;;22.70;99.60;;;;;;5028913;28;20408;-68
2021/05/25 07:22:39;;;;;;;7.13;1.55;;;21.80;99.90;;;;;;5029882;28;20041;-71
2021/05/25 07:25:43;;;;;;;8.23;2.05;;;20.40;99.90;;;;;;5030421;28;20041;-68
2021/05/25 07:28:47;;;;;;;10.77;1.58;;;19.90;99.90;;;;;;5032641;28;20049;-68
2021/05/25 07:31:52;;;;;;;9.38;2.20;;;20.90;99.90;;;;;;5032003;28;20040;-69
2021/05/25 07:34:56;;;;;;;7.40;1.58;;;21.90;99.90;;;;;;5019499;28;20060;-69
2021/05/25 07:38:00;;;;;;;10.25;2.47;;;24.20;99.60;;;;;;5031299;28;20060;-69
2021/05/25 07:41:05;;;;;;;8.88;1.58;;;25.20;96.20;;;;;;5020952;28;20060;-69
2021/05/25 07:44:09;;;;;;;4.85;1.45;;;25.50;95.40;;;;;;5032073;28;20051;-68
2021/05/25 07:47:14;;;;;;;4.78;1.45;;;26.50;95.40;;;;;;5030764;28;20038;-68
2021/05/25 07:50:18;;;;;;;6.13;1.75;;;26.90;94.60;;;;;;5029320;28;20076;-68
2021/05/25 07:53:23;;;;;;;11.60;2.00;;;27.80;93.30;;;;;;5018719;28;20044;-69
2021/05/25 07:56:27;;;;;;;8.98;2.15;;;29.50;93.20;;;;;;5031124;28;20056;-69
2021/05/25 07:59:32;;;;;;;8.30;1.65;;;28.90;90.70;;;;;;5031274;28;20399;-67
2021/05/25 08:02:36;;;;;;;4.22;1.30;;;29.40;90.60;;;;;;5030007;28;20044;-67
2021/05/25 08:05:40;;;;;;;8.23;1.63;;;29.40;91.40;;;;;;5029933;28;20582;-67
2021/05/25 08:08:44;;;;;;;6.97;1.73;;;29.90;90.20;;;;;;5029611;28;20511;-67
2021/05/25 08:11:49;;;;;;;5.47;1.70;;;27.00;88.10;;;;;;5030793;28;20388;-66
2021/05/25 08:14:55;;;;;;;5.95;1.70;;;28.00;92.40;;;;;;5019088;28;20052;-67
2021/05/25 08:18:15;;;;;;;8.43;1.70;;;28.20;89.30;;;;;;5030551;28;20045;-67
2021/05/25 08:21:20;;;;;;;6.53;1.35;;;28.90;90.20;;;;;;5030575;28;20420;-67
2021/05/25 08:24:24;;;;;;;7.95;1.40;;;27.10;90.50;;;;;;5030720;28;20598;-67
2021/05/25 08:27:29;;;;;;;6.13;1.33;;;29.70;90.30;;;;;;5030408;28;20037;-68
2021/05/25 08:30:37;;;;;;;3.90;1.25;;;30.10;88.10;;;;;;5031057;28;20044;-67
2021/05/25 08:33:42;;;;;;;7.90;1.50;;;30.40;85.60;;;;;;5030640;28;20393;-68
2021/05/25 08:36:47;;;;;;;11.50;1.45;;;30.90;84.30;;;;;;5030660;28;20036;-67
2021/05/25 08:39:51;;;;;;;6.97;1.35;;;31.60;86.10;;;;;;5030081;28;20522;-67
2021/05/25 08:42:56;;;;;;;5.82;1.10;;;31.80;82.90;;;;;;5030436;28;20056;-68
2021/05/25 08:46:00;;;;;;;3.88;1.38;;;31.70;83.20;;;;;;5030915;28;20507;-68
2021/05/25 08:49:11;;;;;;;6.32;1.50;;;30.30;81.80;;;;;;5030406;28;20492;-66
2021/05/25 08:52:17;;;;;;;8.00;1.60;;;30.30;84.60;;;;;;5030627;28;20052;-66
2021/05/25 08:55:22;;;;;;;13.85;2.08;;;31.60;83.30;;;;;;5029727;28;20040;-65
2021/05/25 08:58:26;;;;;;;5.22;1.60;;;30.70;81.70;;;;;;5029935;28;20052;-66
2021/05/25 09:01:31;;;;;;;6.80;1.83;;;31.50;81.80;;;;;;5010716;28;20421;-66
2021/05/25 09:05:05;;;;;;;5.88;1.55;;;32.30;82.80;;;;;;5023430;28;20067;-67
2021/05/25 09:08:09;;;;;;;5.22;2.45;;;32.70;80.40;;;;;;5029140;28;20052;-66
2021/05/25 09:11:16;;;;;;;6.55;1.70;;;32.70;78.80;;;;;;5012739;28;20045;-66
2021/05/25 09:14:20;;;;;;;7.97;2.00;;;30.60;79.00;;;;;;5023857;28;20041;-67
2021/05/25 09:17:25;;;;;;;8.70;2.10;;;27.60;81.40;;;;;;5030261;28;20037;-68
2021/05/25 09:20:56;;;;;;;5.00;1.48;;;30.30;82.20;;;;;;5028735;28;20396;-66
2021/05/25 09:24:00;;;;;;;10.40;2.25;;;33.50;81.30;;;;;;5027024;28;20068;-66
2021/05/25 09:27:04;;;;;;;8.80;1.50;;;31.80;79.80;;;;;;5025051;28;20053;-67
2021/05/25 09:30:25;;;;;;;5.25;1.90;;;33.20;78.50;;;;;;5026490;28;20032;-65
2021/05/25 09:33:32;;;;;;;6.55;1.25;;;32.80;78.10;;;;;;5029288;28;20389;-67
2021/05/25 09:37:06;;;;;;;13.52;2.20;;;33.70;76.70;;;;;;5029432;28;20044;-67
2021/05/25 09:40:10;;;;;;;5.80;1.52;;;32.70;76.60;;;;;;5015218;28;20074;-66
2021/05/25 09:43:21;;;;;;;8.90;1.73;;;32.00;79.00;;;;;;5030446;28;20048;-66
2021/05/25 09:46:32;;;;;;;7.70;1.75;;;33.30;76.40;;;;;;5018292;28;20252;-66
2021/05/25 09:49:36;;;;;;;11.13;1.80;;;34.10;75.00;;;;;;5030329;28;20052;-66
2021/05/25 09:53:19;;;;;;;10.43;1.70;;;35.40;73.50;;;;;;5030998;28;20523;-65
2021/05/25 09:56:31;;;;;;;10.23;1.60;;;36.20;72.60;;;;;;5007186;28;20507;-66
2021/05/25 09:59:39;;;;;;;10.15;2.03;;;35.90;71.00;;;;;;5030810;28;20053;-67
2021/05/25 10:02:43;;;;;;;7.63;1.75;;;34.40;70.20;;;;;;5031168;28;20048;-65
2021/05/25 10:05:50;;;;;;;8.05;1.58;;;34.10;69.40;;;;;;5030990;28;20052;-65
2021/05/25 10:08:55;;;;;;;11.13;2.15;;;34.40;70.20;;;;;;5030463;28;20044;-68
2021/05/25 10:11:59;;;;;;;11.15;2.13;;;34.40;68.50;;;;;;5029538;28;20048;-68
2021/05/25 10:15:05;;;;;;;8.30;1.60;;;33.60;65.70;;;;;;5032829;28;20048;-67
2021/05/25 10:18:17;;;;;;;6.25;1.50;;;33.50;69.70;;;;;;5034390;28;20400;-65
2021/05/25 10:21:21;;;;;;;7.80;1.83;;;30.30;67.60;;;;;;5033524;28;20045;-66
2021/05/25 10:24:25;;;;;;;6.10;1.73;;;31.30;73.40;;;;;;5033038;28;20384;-65
2021/05/25 10:27:31;;;;;;;9.68;1.63;;;28.20;72.40;;;;;;5033325;28;20041;-67
2021/05/25 10:30:40;;;;;;;6.95;1.90;;;30.80;73.60;;;;;;5032951;28;20048;-65
2021/05/25 10:33:45;;;;;;;8.80;1.42;;;33.70;70.10;;;;;;5033155;28;20052;-66
2021/05/25 10:36:54;;;;;;;4.47;1.70;;;34.70;67.50;;;;;;5033318;28;20056;-67
2021/05/25 10:39:59;;;;;;;;;;;34.70;68.40;;;;;;5032204;28;20044;-65
2021/05/25 10:43:32;;;;;;;7.70;2.15;;;34.80;66.70;;;;;;5011660;28;20361;-66
2021/05/25 10:46:36;;;;;;;6.22;1.90;;;30.80;65.80;;;;;;5013533;28;20057;-66
2021/05/25 10:53:27;;;;;;;9.88;1.75;;;32.70;69.60;;;;;;4997162;28;20103;-66
2021/05/25 10:56:37;;;;;;;7.13;1.75;;;33.30;69.00;;;;;;5033054;28;20052;-67
2021/05/25 11:00:08;;;;;;;9.35;1.63;;;33.30;69.70;;;;;;5032858;28;20048;-65
2021/05/25 11:03:23;;;;;;;13.57;2.17;;;34.00;67.80;;;;;;5032744;28;20464;-66
2021/05/25 11:06:30;;;;;;;10.15;2.95;;;33.30;68.20;;;;;;5032243;28;20048;-67
2021/05/25 11:09:35;;;;;;;6.28;1.70;;;31.80;67.60;;;;;;5023965;28;20052;-66
2021/05/25 11:12:39;;;;;;;9.93;1.60;;;31.40;70.50;;;;;;5033071;28;20400;-67
2021/05/25 11:16:22;;;;;;;11.15;1.88;;;32.50;68.80;;;;;;5032254;28;20392;-66
2021/05/25 11:19:35;;;;;;;16.80;2.17;;;32.60;68.00;;;;;;5011603;28;20520;-65
2021/05/25 11:22:42;;;;;;;10.13;1.48;;;32.80;68.70;;;;;;5013192;28;20049;-67
2021/05/25 11:25:46;;;;;;;10.13;1.98;;;32.30;68.10;;;;;;5016440;28;20044;-65
2021/05/25 11:29:15;;;;;;;10.48;2.35;;;33.00;67.00;;;;;;5031545;28;20428;-66
2021/05/25 11:32:24;;;;;;;8.90;1.63;;;31.90;66.00;;;;;;5028204;28;20392;-67
2021/05/25 11:35:33;;;;;;;7.28;1.30;;;30.60;68.80;;;;;;5030515;28;20056;-66
2021/05/25 11:38:39;;;;;;;8.48;1.63;;;30.80;68.40;;;;;;5031333;28;20056;-66
2021/05/25 11:41:43;;;;;;;8.60;2.20;;;30.30;72.10;;;;;;5028798;28;20044;-65
2021/05/25 11:44:47;;;;;;;7.75;1.67;;;29.60;68.70;;;;;;5029552;28;20144;-65
2021/05/25 11:47:55;;;;;;;7.75;1.50;;;27.20;69.10;;;;;;5032407;28;20037;-65
2021/05/25 11:51:10;;;;;;;7.72;1.98;;;27.50;68.70;;;;;;5030598;28;20048;-66
2021/05/25 11:54:21;;;;;;;7.15;1.58;;;28.70;71.20;;;;;;5027823;28;20120;-67
2021/05/25 11:57:38;;;;;;;6.45;1.45;;;27.10;71.10;;;;;;5030881;28;20490;-65
2021/05/25 12:00:42;;;;;;;8.18;2.15;;;27.20;72.30;;;;;;5029587;28;20052;-66
2021/05/25 12:03:49;;;;;;;6.63;1.60;;;27.80;70.30;;;;;;5026177;28;20040;-66
2021/05/25 12:06:58;;;;;;;11.75;2.25;;;27.50;72.00;;;;;;5031508;28;20041;-65
2021/05/25 12:10:06;;;;;;;6.32;1.33;;;26.90;69.10;;;;;;5027000;28;20032;-65
2021/05/25 12:13:12;;;;;;;8.85;1.70;;;24.50;72.20;;;;;;5029687;28;20072;-65
2021/05/25 12:16:16;;;;;;;9.73;1.67;;;24.90;72.40;;;;;;5031476;28;20052;-67
2021/05/25 12:19:21;;;;;;;8.52;1.88;;;25.40;71.50;;;;;;5030790;28;20052;-68
2021/05/25 12:22:40;;;;;;;8.57;1.40;;;24.50;72.20;;;;;;5029639;28;20068;-65
2021/05/25 12:25:50;;;;;;;4.32;1.25;;;24.70;71.90;;;;;;5030516;28;20404;-68
2021/05/25 12:28:55;;;;;;;7.50;1.05;;;23.40;72.60;;;;;;5030655;28;20036;-64
2021/05/25 12:32:00;;;;;;;5.28;1.10;;;23.10;76.30;;;;;;5031290;28;20056;-67
2021/05/25 12:35:06;;;;;;;6.18;1.02;;;24.10;71.90;;;;;;5030677;28;20041;-66
2021/05/25 12:38:13;;;;;;;14.52;1.63;;;24.80;70.70;;;;;;5031125;28;20044;-65
2021/05/25 12:41:17;;;;;;;7.40;1.88;;;25.20;70.20;;;;;;5030029;28;20045;-66
2021/05/25 12:44:30;;;;;;;4.60;1.40;;;25.20;69.60;;;;;;5029950;28;20072;-67
2021/05/25 12:47:55;;;;;;;8.98;1.52;;;24.50;73.80;;;;;;5030526;28;20587;-66
2021/05/25 12:50:59;;;;;;;7.25;1.40;;;24.20;72.30;;;;;;5029580;28;20538;-68
2021/05/25 12:54:04;;;;;;;4.13;1.10;;;24.80;69.50;;;;;;5029915;28;20506;-66
2021/05/25 12:57:07;;;;;;;7.50;1.38;;;24.20;68.80;;;;;;5013101;28;20060;-66
2021/05/25 13:00:14;;;;;;;7.13;1.38;;;24.50;69.70;;;;;;5030041;28;20064;-65
2021/05/25 13:03:31;;;;;;;12.88;1.55;;;24.40;70.80;;;;;;5030208;28;20048;-66
2021/05/25 13:06:55;;;;;;;4.43;1.20;;;24.10;70.30;;;;;;5030684;28;20045;-67
2021/05/25 13:10:01;;;;;;;8.98;1.77;;;23.30;70.60;;;;;;5029367;28;20385;-67
2021/05/25 13:13:10;;;;;;;10.00;1.48;;;22.70;72.80;;;;;;5029053;28;20049;-66
2021/05/25 13:16:32;;;;;;;7.38;1.27;;;22.70;70.30;;;;;;5028389;28;20044;-66
2021/05/25 13:19:47;;;;;;;9.00;2.00;;;22.50;72.40;;;;;;5029985;28;20040;-65
2021/05/25 13:22:51;;;;;;;8.82;1.58;;;22.70;71.60;;;;;;5029875;28;20049;-67
2021/05/25 13:26:05;;;;;;;8.10;1.60;;;23.20;72.00;;;;;;5017139;28;20391;-67
2021/05/25 13:29:10;;;;;;;8.15;1.30;;;23.40;75.60;;;;;;5030455;28;20045;-66
2021/05/25 13:32:15;;;;;;;10.50;1.92;;;22.80;72.30;;;;;;5028366;28;20040;-66
2021/05/25 13:35:19;;;;;;;12.73;1.80;;;22.90;71.60;;;;;;5029883;28;20037;-68
2021/05/25 13:38:40;;;;;;;10.18;1.90;;;22.10;73.90;;;;;;5018513;28;20045;-67
2021/05/25 13:41:47;;;;;;;7.43;2.17;;;22.40;76.50;;;;;;5017015;28;20044;-66
2021/05/25 13:44:52;;;;;;;9.13;1.50;;;21.80;72.90;;;;;;5028499;28;20053;-65
2021/05/25 13:47:58;;;;;;;5.75;1.45;;;21.30;71.20;;;;;;5029052;28;20048;-66
2021/05/25 13:51:02;;;;;;;8.85;1.50;;;21.20;69.50;;;;;;5036794;28;20045;-66
2021/05/25 13:54:06;;;;;;;7.28;1.77;;;21.50;71.80;;;;;;5035109;28;20048;-65
2021/05/25 13:57:22;;;;;;;6.70;1.23;;;21.90;71.00;;;;;;5025052;28;20048;-66
2021/05/25 14:00:45;;;;;;;4.47;1.02;;;21.80;75.30;;;;;;5037057;28;20071;-67
2021/05/25 14:03:50;;;;;;;7.35;1.38;;;22.40;71.70;;;;;;5018693;28;20044;-66
2021/05/25 14:06:54;;;;;;;6.38;1.30;;;22.60;72.40;;;;;;5037279;28;20036;-67
2021/05/25 14:09:58;;;;;;;6.45;1.40;;;22.60;70.80;;;;;;5036425;28;20052;-64
2021/05/25 14:13:03;;;;;;;5.97;1.83;;;22.80;72.50;;;;;;5037213;28;20044;-65
2021/05/25 14:16:08;;;;;;;7.57;1.20;;;22.70;73.80;;;;;;5037373;28;20060;-67
2021/05/25 14:19:12;;;;;;;4.93;1.42;;;22.80;72.10;;;;;;5037047;28;20036;-67
2021/05/25 14:22:17;;;;;;;7.53;1.40;;;22.70;69.90;;;;;;5031373;28;20048;-67
2021/05/25 14:25:21;;;;;;;7.95;1.52;;;22.50;69.70;;;;;;5020610;28;20068;-68
2021/05/25 14:28:27;;;;;;;5.18;1.38;;;22.60;72.00;;;;;;5024749;28;20404;-64
2021/05/25 14:31:34;;;;;;;6.38;1.20;;;22.60;71.70;;;;;;5036171;28;20048;-67
2021/05/25 14:34:39;;;;;;;4.32;1.25;;;22.40;71.20;;;;;;5036959;28;20403;-68
2021/05/25 14:37:44;;;;;;;10.50;1.90;;;22.30;71.80;;;;;;5024174;28;20109;-66
2021/05/25 14:40:50;;;;;;;6.53;1.60;;;20.80;70.00;;;;;;5035711;28;20044;-67
2021/05/25 14:43:54;;;;;;;8.32;1.40;;;20.50;74.10;;;;;;5036160;28;20048;-67
2021/05/25 14:47:00;;;;;;;5.22;1.50;;;21.10;72.90;;;;;;5035814;28;20040;-65
2021/05/25 14:50:23;;;;;;;8.40;1.50;;;21.40;72.30;;;;;;5036202;28;20045;-67
2021/05/25 14:56:37;;;;;;;6.22;1.52;;;21.70;71.80;;;;;;5036389;28;20619;-65
2021/05/25 14:59:42;;;;;;;6.80;1.35;;;20.50;71.70;;;;;;5035625;28;20044;-66
2021/05/25 15:06:32;;;;;;;7.93;1.35;;;20.50;70.00;;;;;;5032936;28;20065;-67
2021/05/25 15:09:43;;;;;;;9.88;2.08;;;20.30;70.70;;;;;;5032062;28;20048;-67
2021/05/25 15:12:46;;;;;;;8.68;1.73;;;20.40;72.30;;;;;;5032794;28;20511;-67
2021/05/25 15:15:51;;;;;;;6.55;1.80;;;20.70;74.10;;;;;;5032996;28;20044;-66
2021/05/25 15:18:55;;;;;;;9.13;1.67;;;20.80;72.10;;;;;;5032433;28;20041;-66
2021/05/25 15:21:59;;;;;;;8.00;1.80;;;21.00;76.20;;;;;;5032518;28;20216;-67
2021/05/25 15:25:06;;;;;;;5.38;1.38;;;21.20;73.80;;;;;;5031343;28;20037;-66
2021/05/25 15:28:10;;;;;;;11.65;1.70;;;20.80;70.10;;;;;;5032714;28;20518;-67
2021/05/25 15:31:15;;;;;;;3.58;1.25;;;20.70;71.70;;;;;;5020163;28;20044;-67
2021/05/25 15:34:19;;;;;;;5.63;1.60;;;20.50;71.60;;;;;;5031848;28;20068;-66
2021/05/25 15:37:25;;;;;;;5.40;1.30;;;20.20;67.10;;;;;;5019934;28;20040;-66
2021/05/25 15:40:34;;;;;;;6.57;1.55;;;20.20;70.80;;;;;;4992610;28;20061;-65
2021/05/25 15:43:39;;;;;;;7.78;1.50;;;20.50;70.40;;;;;;4994404;28;20061;-67
2021/05/25 15:46:44;;;;;;;6.35;1.08;;;20.30;68.40;;;;;;5017951;28;20040;-64
2021/05/25 15:49:49;;;;;;;3.40;1.20;;;19.70;69.90;;;;;;5017360;28;20049;-65
2021/05/25 15:53:09;;;;;;;6.60;1.33;;;19.70;67.80;;;;;;5017809;28;20495;-66
2021/05/25 15:56:19;;;;;;;6.60;1.02;;;19.70;72.40;;;;;;5006417;28;20040;-67
2021/05/25 15:59:23;;;;;;;4.95;0.90;;;20.10;66.30;;;;;;5023548;28;20116;-66
2021/05/25 16:02:41;;;;;;;7.20;1.40;;;19.80;67.20;;;;;;5022066;28;20048;-67
2021/05/25 16:05:45;;;;;;;3.92;1.05;;;19.70;65.20;;;;;;5017021;28;20044;-65
2021/05/25 16:08:49;;;;;;;8.20;1.10;;;19.60;67.90;;;;;;5006090;28;20052;-65
2021/05/25 16:11:53;;;;;;;8.88;1.70;;;19.20;67.30;;;;;;5010826;28;20044;-68
2021/05/25 16:14:58;;;;;;;5.93;1.30;;;19.20;68.80;;;;;;5017103;28;20108;-67
2021/05/25 16:18:03;;;;;;;8.10;1.40;;;19.50;70.50;;;;;;5015610;28;20049;-66
2021/05/25 16:21:07;;;;;;;5.68;1.23;;;19.40;68.00;;;;;;4998449;28;20400;-67
2021/05/25 16:24:12;;;;;;;6.82;1.55;;;19.30;68.60;;;;;;5013992;28;20032;-67